Picture Butte, Canada
Current Conditions -  °F | °C
As of 7:00 AM on Sunday 21 Dec 2014 (Local Time) from CYQL Reporting Station
Broken Clouds Broken Clouds  
Wind Chill: -1°   Ceiling: 20000
Heat Index:   Visibility: 15mi
Dew Point:   Wind: 26mph
Humidity: 70%   Direction: 260°W
Pressure: 29.18"   Gusts: 37mph
Location:  49.87°N, 112.78°W
Report Text: CYQL 211400Z 26023G32KT 15SM SCT120 BKN200 05/M00 A2918 RMK AC3CI4 SLP906 DENSITY ALT 3300FT
Loading
Personal Weather Stations






























Interactive Weather Map New forecast layout! Learn more

10-Day Weather Forecast

Advertisements
Track Severe Weather on mobile